Norfolk Ns (Chambers Fld) Airport
KNGU : now visible

Airfield :











YOU CAN JOIN US ON...

 
LOGIN :

Register | Disclaimer

   EN    FR    IT 

 









Legend :    VFR   Marginal VFR   IFR   Intensive IFR   Very Intensive IFR
Visi :
Ceiling :
>= 8 km
>= 3000ft
5 to 8 km
1000 to 3000 ft
1500m to 5 km
500 to 1000 ft
800 to 1500m
200 to 500 ft
< 800m
< 200 ft
Symbols :   Thunderstorms  Fog  Heavy snow  Heavy precipitations  Wind > 20 kt







- Airport Elevation : 17 ft


KNGU - Norfolk Ns (Chambers Fld)

CURRENT METAR :
  • 201559Z 22012KT 10SM SCT030 BKN260 19/10 A2976 RMK AO2 PK WND 20026/1509 SLP077 T01890100

EXPIRED METARs :
  • 201459Z 20014G29KT 10SM SCT030 BKN240 18/11 A2975 RMK AO2 PK WND 24029/1451 SLP075 T01830111 51028
  • 201359Z 20010G21KT 10SM FEW020 BKN240 17/12 A2974 RMK AO2 SLP072 T01720117

TAF TAF KNGU
Valid from the 20 at 15:00 until the 21 at 15:00 UTC


2015/2115 19015G20KT 9999 FEW025 SCT250 510005 QNH2970INS
BECMG 2102/2104 22012KT 9999 FEW030 SCT080 BKN250 500000 QNH2974INS
BECMG 2108/2110 VRB05KT 9999 FEW030 FEW080 SCT250 QNH2980INS T20/2019Z T11/2112Z FN00178
KZDC FIR / North America



MET'MAP, your aeronautical weather chart ! - Copyright ORBIFLY December 2007 - Disclaimer

ORBIFLY MET'MAP TEAM :

Programming & Development : Alexandra Zaïnal
Concept & Development : Baudouin d'Aumeries
Co-Development & Prog : Marc-Olivier Méhu
Technical & hardware support : Manuel Goepfert

Contact : metmap@orbifly.com




SOURCES & CREDITS :

   NOAA       Earth
Advisory